メインページ
METAR-TAF:

METAR-TAF

空港 :

カンザスシティ, ミズーリ州, アメリカ合衆国

カンザスシティ国際空港

緯度: 39-17-50N, 経度: 094-43-50W, 海抜: 312m

現時点の気象観測

当レポートは58分前の14:53(UTC)に作成
北/北東の風 10kt
気温 6°C
湿度 61%
気圧 1030 hPa
視程: 16.1km
晴天

METAR: KMCI 191453Z 02010KT 10SM CLR 06/M01 A3043 RMK AO2 SLP310 T00611011 51020

時間: 10:51 (15:51 UTC)

予報

当レポートは4時間31分前の11:20(UTC)に作成
予報は19日の 12時(UTC)から 20日の 12時(UTC)まで有効
の風 8kt
視程: 10km
高度25000ftの雲はほとんどない

TAF: KMCI 191120Z 1912/2012 01008KT P6SM FEW250

4,000以上の空港の気象観測と天気予報(METAR報とTAF報)

利用可能な観測所は地図上に黄色い丸と赤い丸で示す。

丸の上にカーソルを重ねると観測所名を参照できる。

次にクリックすると気象観測と天気予報を参照できる。

マップの切り替え:黒色「×」印の緑ボタンをクリックして拡大、「-」印の緑ボタンをクリックして縮小、緑色の三角印をクリックして隣りの地図に切り替え


METAR-TAF: